Time;durP1;ratioP1;P1;durP2;ratioP2;P2;SDS_P1;SDS_P2;PMS_P1;PMS_P2;Temp;Humidity;BMP_temperature;BMP_pressure;BME280_temperature;BME280_humidity;BME280_pressure;Samples;Min_cycle;Max_cycle;Signal;HPM_P1;HPM_P2
2023/01/24 00:02:10;;;;;;;20.17;14.50;;;;;;;;;;5033767;28;20189;-56
2023/01/24 00:04:36;;;;;;;17.37;12.97;;;;;;;;;;5033741;28;20655;-56
2023/01/24 00:07:04;;;;;;;16.97;13.83;;;;;;;;;;5033505;28;20193;-57
2023/01/24 00:09:30;;;;;;;17.07;13.77;;;;;;;;;;5033176;28;20201;-57
2023/01/24 00:11:56;;;;;;;20.73;13.63;;;;;;;;;;5033496;28;20477;-56
2023/01/24 00:14:22;;;;;;;17.27;13.40;;;;;;;;;;5033448;28;20719;-56
2023/01/24 00:16:48;;;;;;;18.13;14.17;;;;;;;;;;5001287;28;20261;-57
2023/01/24 00:19:14;;;;;;;17.73;13.27;;;;;;;;;;4994258;28;20293;-57
2023/01/24 00:21:40;;;;;;;17.70;13.70;;;;;;;;;;4994332;28;20649;-56
2023/01/24 00:24:07;;;;;;;17.20;13.90;;;;;;;;;;4993403;28;20230;-57
2023/01/24 00:26:33;;;;;;;19.37;14.07;;;;;;;;;;4994181;28;20260;-56
2023/01/24 00:28:59;;;;;;;16.17;13.00;;;;;;;;;;4994015;28;20513;-56
2023/01/24 00:31:25;;;;;;;15.00;12.40;;;;;;;;;;4993894;28;20198;-55
2023/01/24 00:33:51;;;;;;;17.63;13.57;;;;;;;;;;4994167;28;20607;-55
2023/01/24 00:36:17;;;;;;;16.47;13.00;;;;;;;;;;4993798;28;20442;-56
2023/01/24 00:38:43;;;;;;;15.47;13.17;;;;;;;;;;4994090;28;20570;-56
2023/01/24 00:41:10;;;;;;;16.43;12.70;;;;;;;;;;4993636;28;20284;-56
2023/01/24 00:43:36;;;;;;;16.93;13.30;;;;;;;;;;4993241;28;20240;-57
2023/01/24 00:46:05;;;;;;;17.10;13.27;;;;;;;;;;4993702;28;20442;-56
2023/01/24 00:48:31;;;;;;;17.07;13.47;;;;;;;;;;4993536;28;20862;-55
2023/01/24 00:50:57;;;;;;;16.97;13.63;;;;;;;;;;4993734;28;20520;-56
2023/01/24 00:53:25;;;;;;;17.93;13.87;;;;;;;;;;4993449;28;20647;-56
2023/01/24 00:55:54;;;;;;;18.03;12.77;;;;;;;;;;4991952;28;20281;-55
2023/01/24 00:58:22;;;;;;;15.67;12.83;;;;;;;;;;4992051;28;20528;-55
2023/01/24 01:00:47;;;;;;;17.00;13.90;;;;;;;;;;4993290;28;20445;-55
2023/01/24 01:03:15;;;;;;;17.93;13.40;;;;;;;;;;4993592;28;20991;-55
2023/01/24 01:05:41;;;;;;;17.17;13.80;;;;;;;;;;4993626;28;20553;-55
2023/01/24 01:08:07;;;;;;;19.00;13.90;;;;;;;;;;4993419;28;20846;-55
2023/01/24 01:10:33;;;;;;;16.87;13.57;;;;;;;;;;4993163;28;20521;-55
2023/01/24 01:12:59;;;;;;;18.47;13.37;;;;;;;;;;4993371;28;20491;-55
2023/01/24 01:15:26;;;;;;;16.90;13.27;;;;;;;;;;4993197;28;20348;-55
2023/01/24 01:17:52;;;;;;;17.13;13.47;;;;;;;;;;4993239;28;20206;-57
2023/01/24 01:20:18;;;;;;;17.73;13.73;;;;;;;;;;4993002;28;20436;-57
2023/01/24 01:22:45;;;;;;;17.63;13.67;;;;;;;;;;4993390;28;20285;-55
2023/01/24 01:25:11;;;;;;;15.70;13.37;;;;;;;;;;4993006;28;20500;-57
2023/01/24 01:27:37;;;;;;;18.73;13.13;;;;;;;;;;4992944;28;20500;-58
2023/01/24 01:30:03;;;;;;;16.33;13.10;;;;;;;;;;4992991;28;20437;-58
2023/01/24 01:32:30;;;;;;;14.93;12.47;;;;;;;;;;4993113;28;20276;-57
2023/01/24 01:34:56;;;;;;;15.70;12.67;;;;;;;;;;4993263;28;20452;-58
2023/01/24 01:37:22;;;;;;;15.37;12.43;;;;;;;;;;4992709;28;20442;-58
2023/01/24 01:39:48;;;;;;;16.03;12.70;;;;;;;;;;4992592;28;20544;-64
2023/01/24 01:42:14;;;;;;;15.37;13.00;;;;;;;;;;4992841;28;20253;-59
2023/01/24 01:44:48;;;;;;;18.17;13.87;;;;;;;;;;4992612;28;20289;-59
2023/01/24 01:47:18;;;;;;;17.87;13.17;;;;;;;;;;4992928;28;20446;-59
2023/01/24 01:49:47;;;;;;;16.97;12.77;;;;;;;;;;4992969;28;20434;-59
2023/01/24 01:52:13;;;;;;;15.40;12.73;;;;;;;;;;4992583;28;20484;-58
2023/01/24 01:54:41;;;;;;;15.37;12.93;;;;;;;;;;4992566;28;20430;-59
2023/01/24 01:57:08;;;;;;;16.60;12.60;;;;;;;;;;4992507;28;20442;-58
2023/01/24 01:59:35;;;;;;;15.73;13.50;;;;;;;;;;4992256;28;20465;-59
2023/01/24 02:02:02;;;;;;;17.60;12.67;;;;;;;;;;4992485;28;20426;-59
2023/01/24 02:04:30;;;;;;;15.90;12.87;;;;;;;;;;4992657;28;20437;-58
2023/01/24 02:07:00;;;;;;;14.33;12.73;;;;;;;;;;4992673;28;20503;-59
2023/01/24 02:09:28;;;;;;;16.93;12.77;;;;;;;;;;4992280;28;20947;-59
2023/01/24 02:11:57;;;;;;;15.13;12.37;;;;;;;;;;4992149;28;20584;-59
2023/01/24 02:17:09;;;;;;;14.17;12.03;;;;;;;;;;4992239;28;20417;-59
2023/01/24 02:19:42;;;;;;;14.37;12.07;;;;;;;;;;4992089;28;20535;-59
2023/01/24 02:22:13;;;;;;;14.83;11.93;;;;;;;;;;4992138;28;20517;-59
2023/01/24 02:24:43;;;;;;;13.87;11.03;;;;;;;;;;4991990;28;20901;-59
2023/01/24 02:27:10;;;;;;;12.37;10.60;;;;;;;;;;4992070;28;20438;-59
2023/01/24 02:29:36;;;;;;;14.60;11.60;;;;;;;;;;4991788;28;20968;-59
2023/01/24 02:32:05;;;;;;;14.33;10.90;;;;;;;;;;4991989;28;20477;-59
2023/01/24 02:34:31;;;;;;;14.97;11.17;;;;;;;;;;4991969;28;20209;-60
2023/01/24 02:36:59;;;;;;;12.53;10.90;;;;;;;;;;4992110;28;20816;-59
2023/01/24 02:39:27;;;;;;;12.57;10.83;;;;;;;;;;4991861;28;20198;-59
2023/01/24 02:41:55;;;;;;;11.33;9.57;;;;;;;;;;4992049;28;20458;-59
2023/01/24 02:44:25;;;;;;;12.23;9.83;;;;;;;;;;4991771;28;20524;-58
2023/01/24 02:46:51;;;;;;;12.13;9.50;;;;;;;;;;4996115;28;20461;-59
2023/01/24 02:49:18;;;;;;;11.07;9.30;;;;;;;;;;4998240;28;20472;-59
2023/01/24 02:54:28;;;;;;;10.30;8.17;;;;;;;;;;4998447;28;20448;-59
2023/01/24 02:59:40;;;;;;;9.10;8.07;;;;;;;;;;4998254;28;20197;-59
2023/01/24 03:02:06;;;;;;;9.83;7.63;;;;;;;;;;4998160;28;20491;-59
2023/01/24 03:04:32;;;;;;;9.00;7.70;;;;;;;;;;4998062;28;20441;-59
2023/01/24 03:06:58;;;;;;;8.53;7.63;;;;;;;;;;4998352;28;20237;-59
2023/01/24 03:09:33;;;;;;;8.73;7.33;;;;;;;;;;4998090;28;20224;-58
2023/01/24 03:36:44;;;;;;;6.60;5.57;;;;;;;;;;4998150;28;20417;-58
2023/01/24 03:41:56;;;;;;;6.17;5.33;;;;;;;;;;4998020;28;20217;-58
2023/01/24 03:44:23;;;;;;;6.73;5.57;;;;;;;;;;4997583;28;20572;-59
2023/01/24 03:46:50;;;;;;;6.53;5.30;;;;;;;;;;4997793;28;20441;-58
2023/01/24 03:49:17;;;;;;;6.70;5.50;;;;;;;;;;4997864;28;20453;-58
2023/01/24 03:54:28;;;;;;;4.67;4.27;;;;;;;;;;4998025;28;20424;-58
2023/01/24 03:56:54;;;;;;;5.07;4.57;;;;;;;;;;4997381;28;20441;-58
2023/01/24 03:59:20;;;;;;;5.23;4.73;;;;;;;;;;4993825;28;20688;-58
2023/01/24 04:01:46;;;;;;;5.43;4.80;;;;;;;;;;4994806;28;20429;-58
2023/01/24 04:04:13;;;;;;;5.47;4.70;;;;;;;;;;4994863;28;20206;-58
2023/01/24 04:06:40;;;;;;;5.57;4.70;;;;;;;;;;4994522;28;20452;-58
2023/01/24 04:09:06;;;;;;;5.60;5.00;;;;;;;;;;4994637;28;20488;-58
2023/01/24 04:11:32;;;;;;;6.30;5.20;;;;;;;;;;4994469;28;20485;-58
2023/01/24 04:13:58;;;;;;;6.50;5.00;;;;;;;;;;4994390;28;20317;-59
2023/01/24 04:16:24;;;;;;;5.70;5.10;;;;;;;;;;4994418;28;20194;-59
2023/01/24 04:18:50;;;;;;;5.40;4.90;;;;;;;;;;4994467;28;20707;-59
2023/01/24 04:21:17;;;;;;;6.00;5.40;;;;;;;;;;4994387;28;20201;-59
2023/01/24 04:23:43;;;;;;;5.87;5.27;;;;;;;;;;4994417;28;20211;-58
2023/01/24 04:26:09;;;;;;;5.30;4.63;;;;;;;;;;4994206;28;20445;-58
2023/01/24 04:28:35;;;;;;;7.87;4.67;;;;;;;;;;4994367;28;20230;-58
2023/01/24 04:31:02;;;;;;;5.93;4.30;;;;;;;;;;4994318;28;20574;-58
2023/01/24 04:33:28;;;;;;;4.60;4.20;;;;;;;;;;4994042;28;20234;-58
2023/01/24 04:35:56;;;;;;;5.20;4.70;;;;;;;;;;4994101;28;20446;-57
2023/01/24 04:38:24;;;;;;;5.00;4.50;;;;;;;;;;4993937;28;20487;-58
2023/01/24 04:40:56;;;;;;;4.90;4.40;;;;;;;;;;4993983;28;20532;-57
2023/01/24 04:43:22;;;;;;;4.73;4.23;;;;;;;;;;4993684;28;20438;-57
2023/01/24 04:45:48;;;;;;;5.00;4.53;;;;;;;;;;4993896;28;20500;-57
2023/01/24 04:48:14;;;;;;;6.33;4.83;;;;;;;;;;4994170;28;20689;-57
2023/01/24 04:50:40;;;;;;;5.90;5.30;;;;;;;;;;4993813;28;20442;-57
2023/01/24 04:53:06;;;;;;;5.53;4.70;;;;;;;;;;4993622;28;20720;-57
2023/01/24 04:55:35;;;;;;;5.73;5.07;;;;;;;;;;4993601;28;20448;-57
2023/01/24 04:58:01;;;;;;;6.23;4.90;;;;;;;;;;4993755;28;20296;-58
2023/01/24 05:00:27;;;;;;;5.53;5.03;;;;;;;;;;4993882;28;20528;-58
2023/01/24 05:02:53;;;;;;;7.03;5.87;;;;;;;;;;4993884;28;20249;-58
2023/01/24 05:05:19;;;;;;;6.83;5.50;;;;;;;;;;4993577;28;20204;-58
2023/01/24 05:07:45;;;;;;;7.57;5.23;;;;;;;;;;4993594;28;20449;-58
2023/01/24 05:10:11;;;;;;;6.10;5.37;;;;;;;;;;4993181;28;20202;-58
2023/01/24 05:12:38;;;;;;;6.00;5.40;;;;;;;;;;4993228;28;20713;-58
2023/01/24 05:15:05;;;;;;;5.10;4.60;;;;;;;;;;4993308;28;20909;-58
2023/01/24 05:17:31;;;;;;;6.20;5.10;;;;;;;;;;4993364;28;20446;-58
2023/01/24 05:19:57;;;;;;;7.53;5.30;;;;;;;;;;4993679;28;20434;-58
2023/01/24 05:22:23;;;;;;;6.03;5.43;;;;;;;;;;4993239;28;20505;-58
2023/01/24 05:24:49;;;;;;;6.00;5.20;;;;;;;;;;4993160;28;20226;-58
2023/01/24 05:27:15;;;;;;;5.50;5.00;;;;;;;;;;4993375;28;20202;-58
2023/01/24 05:29:42;;;;;;;5.67;4.77;;;;;;;;;;4993126;28;20289;-58
2023/01/24 05:32:08;;;;;;;6.53;4.83;;;;;;;;;;4993068;28;20358;-58
2023/01/24 05:34:34;;;;;;;6.87;5.23;;;;;;;;;;4992870;28;20466;-58
2023/01/24 05:37:00;;;;;;;5.47;4.87;;;;;;;;;;4993044;28;20206;-58
2023/01/24 05:39:26;;;;;;;5.73;5.23;;;;;;;;;;4992882;28;20198;-58
2023/01/24 05:41:52;;;;;;;6.77;5.77;;;;;;;;;;4992775;28;20467;-58
2023/01/24 05:44:18;;;;;;;6.07;5.27;;;;;;;;;;4992617;28;20242;-58
2023/01/24 05:46:45;;;;;;;5.17;4.67;;;;;;;;;;4992693;28;20442;-58
2023/01/24 05:49:12;;;;;;;5.50;4.93;;;;;;;;;;4992774;28;20210;-58
2023/01/24 05:51:37;;;;;;;5.37;4.87;;;;;;;;;;4992456;28;20457;-58
2023/01/24 05:54:04;;;;;;;7.53;4.70;;;;;;;;;;4992644;28;20524;-59
2023/01/24 05:56:30;;;;;;;5.27;4.57;;;;;;;;;;4992670;28;20493;-58
2023/01/24 05:58:56;;;;;;;5.37;4.87;;;;;;;;;;4992671;28;21022;-58
2023/01/24 06:01:22;;;;;;;5.57;4.93;;;;;;;;;;4992350;28;20221;-58
2023/01/24 06:03:51;;;;;;;5.77;4.60;;;;;;;;;;4992386;28;20203;-58
2023/01/24 06:06:18;;;;;;;5.63;4.70;;;;;;;;;;4992388;28;20446;-59
2023/01/24 06:08:44;;;;;;;5.53;4.53;;;;;;;;;;4992552;28;20481;-58
2023/01/24 06:11:12;;;;;;;5.97;4.87;;;;;;;;;;4992360;28;20430;-58
2023/01/24 06:13:38;;;;;;;5.30;4.80;;;;;;;;;;4992060;28;20504;-58
2023/01/24 06:16:05;;;;;;;5.63;4.57;;;;;;;;;;4992157;28;20457;-58
2023/01/24 06:18:32;;;;;;;4.80;4.30;;;;;;;;;;4991743;28;20438;-58
2023/01/24 06:21:04;;;;;;;4.80;4.30;;;;;;;;;;4991298;28;20441;-58
2023/01/24 06:23:30;;;;;;;5.50;4.33;;;;;;;;;;4992152;28;20456;-60
2023/01/24 06:25:56;;;;;;;4.43;3.93;;;;;;;;;;4992254;28;20924;-59
2023/01/24 06:28:23;;;;;;;4.37;3.97;;;;;;;;;;4991925;28;20528;-59
2023/01/24 06:30:51;;;;;;;5.80;4.53;;;;;;;;;;4991728;28;20504;-59
2023/01/24 06:33:22;;;;;;;4.60;4.20;;;;;;;;;;4991722;28;20508;-59
2023/01/24 06:35:53;;;;;;;4.90;4.40;;;;;;;;;;4991960;28;20437;-59
2023/01/24 06:38:22;;;;;;;4.43;4.03;;;;;;;;;;4991846;28;20852;-59
2023/01/24 06:40:51;;;;;;;7.23;6.50;;;;;;;;;;4992077;28;20466;-59
2023/01/24 06:43:17;;;;;;;6.80;6.23;;;;;;;;;;4991675;28;20963;-59
2023/01/24 06:45:43;;;;;;;4.13;3.80;;;;;;;;;;4991894;28;20445;-58
2023/01/24 06:48:09;;;;;;;8.17;6.90;;;;;;;;;;4991787;28;20441;-58
2023/01/24 06:50:35;;;;;;;14.20;11.33;;;;;;;;;;4991739;28;20400;-58
2023/01/24 06:53:01;;;;;;;13.53;10.37;;;;;;;;;;4991886;28;20485;-58
2023/01/24 06:55:28;;;;;;;6.97;6.23;;;;;;;;;;4991958;28;20449;-59
2023/01/24 06:57:54;;;;;;;5.87;5.27;;;;;;;;;;4991991;28;20648;-58
2023/01/24 07:00:21;;;;;;;6.60;4.40;;;;;;;;;;4991760;28;20437;-58
2023/01/24 07:02:47;;;;;;;4.80;4.30;;;;;;;;;;4991902;28;20503;-58
2023/01/24 07:05:13;;;;;;;5.73;4.70;;;;;;;;;;4991928;28;20443;-59
2023/01/24 07:07:39;;;;;;;7.20;4.30;;;;;;;;;;4991643;28;20198;-59
2023/01/24 07:10:06;;;;;;;5.40;4.90;;;;;;;;;;4991706;28;21219;-56
2023/01/24 07:12:33;;;;;;;5.20;4.57;;;;;;;;;;4991521;28;20225;-57
2023/01/24 07:14:59;;;;;;;5.43;4.37;;;;;;;;;;4991812;28;20931;-57
2023/01/24 07:17:25;;;;;;;5.57;4.17;;;;;;;;;;4991663;28;20516;-58
2023/01/24 07:19:52;;;;;;;5.20;4.37;;;;;;;;;;4991619;28;20298;-58
2023/01/24 07:22:18;;;;;;;5.40;4.40;;;;;;;;;;4991557;28;20445;-58
2023/01/24 07:24:44;;;;;;;4.50;4.10;;;;;;;;;;4991689;28;20448;-59
2023/01/24 07:27:10;;;;;;;6.17;5.17;;;;;;;;;;4991612;28;20524;-59
2023/01/24 07:29:38;;;;;;;5.10;4.60;;;;;;;;;;4991386;28;20460;-59
2023/01/24 07:32:04;;;;;;;5.40;4.90;;;;;;;;;;4992167;28;20893;-58
2023/01/24 07:34:30;;;;;;;5.37;4.70;;;;;;;;;;4994898;28;20997;-58
2023/01/24 07:36:56;;;;;;;5.37;4.27;;;;;;;;;;4995171;28;20446;-58
2023/01/24 07:39:22;;;;;;;5.63;4.50;;;;;;;;;;4995063;28;20231;-58
2023/01/24 07:41:50;;;;;;;5.20;4.43;;;;;;;;;;4994811;28;20461;-59
2023/01/24 07:44:16;;;;;;;5.20;4.70;;;;;;;;;;4994646;28;20234;-58
2023/01/24 07:46:43;;;;;;;6.13;5.30;;;;;;;;;;4994928;28;20504;-58
2023/01/24 07:49:09;;;;;;;5.10;4.60;;;;;;;;;;4994584;28;20237;-58
2023/01/24 07:51:35;;;;;;;5.30;4.80;;;;;;;;;;4994670;28;20515;-58
2023/01/24 07:54:01;;;;;;;5.07;4.40;;;;;;;;;;4994866;28;20258;-58
2023/01/24 07:56:27;;;;;;;4.57;4.17;;;;;;;;;;4995014;28;20446;-58
2023/01/24 07:58:55;;;;;;;4.80;4.30;;;;;;;;;;4994424;28;20516;-59
2023/01/24 08:01:22;;;;;;;5.70;4.70;;;;;;;;;;4994572;28;20202;-58
2023/01/24 08:03:50;;;;;;;4.63;4.23;;;;;;;;;;4994575;28;20544;-61
2023/01/24 08:06:17;;;;;;;4.90;4.50;;;;;;;;;;4994587;28;20989;-59
2023/01/24 08:08:43;;;;;;;4.87;4.37;;;;;;;;;;4994630;28;20523;-59
2023/01/24 08:11:11;;;;;;;4.70;4.30;;;;;;;;;;4994440;28;20433;-58
2023/01/24 08:13:37;;;;;;;4.73;3.90;;;;;;;;;;4994304;28;20320;-56
2023/01/24 08:16:03;;;;;;;5.07;4.53;;;;;;;;;;4994489;28;20437;-56
2023/01/24 08:18:29;;;;;;;5.70;4.10;;;;;;;;;;4994387;28;20783;-56
2023/01/24 08:20:57;;;;;;;5.17;4.67;;;;;;;;;;4994356;28;20958;-56
2023/01/24 08:23:23;;;;;;;6.77;6.07;;;;;;;;;;4994249;28;20290;-57
2023/01/24 08:25:49;;;;;;;5.80;5.20;;;;;;;;;;4994354;28;20437;-57
2023/01/24 08:28:15;;;;;;;5.67;5.07;;;;;;;;;;4994374;28;20516;-57
2023/01/24 08:30:41;;;;;;;5.03;4.20;;;;;;;;;;4994143;28;20442;-57
2023/01/24 08:33:07;;;;;;;4.87;4.37;;;;;;;;;;4994032;28;20261;-57
2023/01/24 08:35:33;;;;;;;4.50;4.10;;;;;;;;;;4993971;28;20202;-57
2023/01/24 08:38:01;;;;;;;4.03;3.63;;;;;;;;;;4994194;28;20449;-57
2023/01/24 08:40:27;;;;;;;4.10;3.70;;;;;;;;;;4994026;28;20515;-57
2023/01/24 08:42:53;;;;;;;6.07;4.07;;;;;;;;;;4993845;28;20438;-57
2023/01/24 08:45:18;;;;;;;5.20;4.70;;;;;;;;;;4992993;28;20320;-57
2023/01/24 08:47:44;;;;;;;5.50;4.90;;;;;;;;;;4994094;28;20207;-56
2023/01/24 08:50:14;;;;;;;5.93;4.63;;;;;;;;;;4993823;28;20210;-57
2023/01/24 08:52:40;;;;;;;4.97;4.50;;;;;;;;;;4993517;28;20688;-57
2023/01/24 08:55:08;;;;;;;5.33;4.67;;;;;;;;;;4993861;28;20440;-55
2023/01/24 08:57:34;;;;;;;5.00;4.60;;;;;;;;;;4993586;28;20672;-58
2023/01/24 09:00:00;;;;;;;5.07;4.53;;;;;;;;;;4993780;28;20456;-56
2023/01/24 09:02:26;;;;;;;4.57;4.10;;;;;;;;;;4993657;28;20562;-57
2023/01/24 09:04:52;;;;;;;5.40;4.90;;;;;;;;;;4993526;28;20433;-57
2023/01/24 09:07:18;;;;;;;5.20;4.70;;;;;;;;;;4993544;28;20213;-58
2023/01/24 09:09:44;;;;;;;6.53;4.90;;;;;;;;;;4994509;28;20653;-57
2023/01/24 09:12:11;;;;;;;5.93;5.33;;;;;;;;;;5012788;28;20236;-57
2023/01/24 09:14:37;;;;;;;5.63;4.83;;;;;;;;;;5012984;28;20206;-57
2023/01/24 09:17:03;;;;;;;5.20;4.70;;;;;;;;;;5013154;28;20953;-57
2023/01/24 09:19:29;;;;;;;4.83;4.43;;;;;;;;;;5013197;28;20255;-56
2023/01/24 09:21:56;;;;;;;5.17;4.67;;;;;;;;;;5013156;28;20445;-56
2023/01/24 09:24:23;;;;;;;5.50;4.97;;;;;;;;;;5013172;28;20201;-55
2023/01/24 09:26:49;;;;;;;4.60;4.20;;;;;;;;;;5012748;28;20986;-55
2023/01/24 09:29:16;;;;;;;5.10;4.60;;;;;;;;;;5012942;28;20508;-58
2023/01/24 09:31:42;;;;;;;4.60;4.20;;;;;;;;;;5012849;28;20209;-56
2023/01/24 09:34:08;;;;;;;4.97;4.47;;;;;;;;;;5012764;28;20480;-56
2023/01/24 09:36:34;;;;;;;5.13;4.10;;;;;;;;;;5012679;28;20198;-56
2023/01/24 09:39:00;;;;;;;5.90;5.30;;;;;;;;;;5010729;28;20292;-56
2023/01/24 09:41:33;;;;;;;5.70;4.37;;;;;;;;;;5012375;28;20499;-55
2023/01/24 09:44:00;;;;;;;6.87;6.17;;;;;;;;;;5012196;28;20511;-58
2023/01/24 09:46:30;;;;;;;6.70;5.97;;;;;;;;;;5012261;28;20437;-55
2023/01/24 09:49:01;;;;;;;8.27;6.90;;;;;;;;;;5012348;28;20571;-55
2023/01/24 09:51:29;;;;;;;8.77;6.77;;;;;;;;;;5012116;28;20910;-56
2023/01/24 09:53:57;;;;;;;8.00;6.53;;;;;;;;;;5012310;28;20561;-56
2023/01/24 09:56:30;;;;;;;7.47;6.63;;;;;;;;;;5011010;28;20495;-56
2023/01/24 09:59:11;;;;;;;7.50;6.57;;;;;;;;;;5012145;28;20807;-56
2023/01/24 10:01:40;;;;;;;6.60;6.00;;;;;;;;;;5011871;28;20466;-56
2023/01/24 10:04:10;;;;;;;5.97;5.33;;;;;;;;;;5012019;28;20636;-59
2023/01/24 10:06:39;;;;;;;6.83;5.10;;;;;;;;;;5011590;28;20432;-56
2023/01/24 10:09:12;;;;;;;6.50;5.57;;;;;;;;;;5011722;28;20455;-56
2023/01/24 10:11:41;;;;;;;6.37;5.77;;;;;;;;;;5011353;28;20479;-56
2023/01/24 10:14:20;;;;;;;7.30;6.00;;;;;;;;;;5011532;28;20889;-56
2023/01/24 10:16:55;;;;;;;7.00;6.30;;;;;;;;;;5011966;28;20742;-56
2023/01/24 10:19:28;;;;;;;8.30;6.47;;;;;;;;;;5011672;28;20448;-56
2023/01/24 10:22:00;;;;;;;7.47;6.20;;;;;;;;;;5011576;28;20555;-56
2023/01/24 10:24:30;;;;;;;7.73;6.03;;;;;;;;;;5011599;28;20448;-54
2023/01/24 10:26:56;;;;;;;7.40;6.13;;;;;;;;;;5011897;28;20447;-56
2023/01/24 10:29:23;;;;;;;7.13;6.43;;;;;;;;;;5011489;28;20448;-56
2023/01/24 10:31:53;;;;;;;6.20;5.60;;;;;;;;;;5011768;28;20532;-56
2023/01/24 10:34:25;;;;;;;6.07;5.07;;;;;;;;;;5011435;28;20583;-56
2023/01/24 10:36:53;;;;;;;6.73;6.03;;;;;;;;;;5011301;28;20437;-57
2023/01/24 10:39:19;;;;;;;8.57;6.20;;;;;;;;;;5011470;28;20453;-57
2023/01/24 10:41:45;;;;;;;7.90;6.10;;;;;;;;;;5011484;28;20523;-55
2023/01/24 10:44:14;;;;;;;7.07;6.37;;;;;;;;;;5011342;28;20239;-56
2023/01/24 10:46:47;;;;;;;6.73;5.83;;;;;;;;;;5011359;28;20565;-55
2023/01/24 10:49:17;;;;;;;7.10;6.40;;;;;;;;;;5011384;28;20856;-55
2023/01/24 10:51:43;;;;;;;8.43;7.53;;;;;;;;;;5011472;28;20520;-57
2023/01/24 10:54:20;;;;;;;7.30;6.53;;;;;;;;;;5011666;28;20476;-55
2023/01/24 10:56:46;;;;;;;6.77;6.07;;;;;;;;;;5011288;28;20798;-57
2023/01/24 10:59:13;;;;;;;8.43;6.50;;;;;;;;;;5011407;28;20437;-56
2023/01/24 11:01:42;;;;;;;6.97;6.27;;;;;;;;;;5011325;28;20992;-56
2023/01/24 11:04:20;;;;;;;7.20;6.50;;;;;;;;;;5011036;28;20432;-57
2023/01/24 11:06:47;;;;;;;8.43;6.90;;;;;;;;;;5011346;28;20437;-57
2023/01/24 11:09:14;;;;;;;7.53;6.60;;;;;;;;;;5015262;28;20588;-57
2023/01/24 11:11:41;;;;;;;8.07;6.97;;;;;;;;;;5014960;28;20452;-57
2023/01/24 11:14:11;;;;;;;6.97;6.13;;;;;;;;;;5014929;28;20578;-57
2023/01/24 11:16:42;;;;;;;6.80;6.17;;;;;;;;;;5014849;28;20444;-56
2023/01/24 11:19:20;;;;;;;7.10;6.33;;;;;;;;;;5014894;28;20519;-57
2023/01/24 11:21:55;;;;;;;6.87;6.27;;;;;;;;;;5014815;28;20462;-56
2023/01/24 11:24:22;;;;;;;7.13;6.43;;;;;;;;;;5014873;28;20438;-56
2023/01/24 11:26:53;;;;;;;7.63;6.83;;;;;;;;;;5014587;28;20447;-56
2023/01/24 11:29:19;;;;;;;7.93;6.90;;;;;;;;;;5014843;28;20806;-56
2023/01/24 11:31:45;;;;;;;7.57;6.83;;;;;;;;;;5015238;28;20997;-56
2023/01/24 11:34:36;;;;;;;9.90;7.40;;;;;;;;;;5015058;28;20538;-59
2023/01/24 11:37:35;;;;;;;7.47;6.77;;;;;;;;;;4995562;28;20447;-56
2023/01/24 11:40:13;;;;;;;6.90;6.20;;;;;;;;;;4935201;29;20475;-55
2023/01/24 11:42:41;;;;;;;7.33;6.63;;;;;;;;;;4935052;29;20534;-55
2023/01/24 11:45:17;;;;;;;7.87;7.07;;;;;;;;;;4966865;28;20817;-56
2023/01/24 11:47:46;;;;;;;8.73;7.30;;;;;;;;;;4995240;28;20441;-58
2023/01/24 11:50:20;;;;;;;12.27;9.00;;;;;;;;;;4993337;28;20457;-56
2023/01/24 11:52:50;;;;;;;21.97;14.07;;;;;;;;;;4994375;28;20488;-56
2023/01/24 11:55:27;;;;;;;9.47;8.50;;;;;;;;;;4994709;28;20484;-56
2023/01/24 11:57:58;;;;;;;9.87;8.23;;;;;;;;;;4994173;28;20507;-56
2023/01/24 12:00:31;;;;;;;15.33;11.67;;;;;;;;;;4994353;28;20455;-56
2023/01/24 12:03:08;;;;;;;26.73;18.87;;;;;;;;;;4994582;28;20477;-56
2023/01/24 12:05:43;;;;;;;46.20;30.93;;;;;;;;;;4994985;28;20811;-56
2023/01/24 12:08:14;;;;;;;33.53;23.47;;;;;;;;;;4994277;28;20444;-55
2023/01/24 12:10:46;;;;;;;20.03;16.47;;;;;;;;;;4994530;28;20457;-56
2023/01/24 12:13:18;;;;;;;9.23;8.20;;;;;;;;;;4994777;28;20486;-57
2023/01/24 12:15:52;;;;;;;17.30;15.67;;;;;;;;;;4994874;28;20450;-57
2023/01/24 12:18:24;;;;;;;14.83;11.63;;;;;;;;;;4993938;28;20484;-57
2023/01/24 12:20:58;;;;;;;10.53;9.63;;;;;;;;;;4994196;28;20463;-57
2023/01/24 12:23:29;;;;;;;8.77;7.20;;;;;;;;;;4994587;28;20524;-56
2023/01/24 12:26:00;;;;;;;7.97;6.90;;;;;;;;;;4994738;28;20496;-57
2023/01/24 12:28:29;;;;;;;8.10;7.07;;;;;;;;;;4994594;28;20441;-56
2023/01/24 12:30:56;;;;;;;9.00;7.47;;;;;;;;;;4994404;28;20437;-55
2023/01/24 12:33:25;;;;;;;9.57;7.90;;;;;;;;;;4994355;28;20628;-56
2023/01/24 12:35:54;;;;;;;9.50;8.60;;;;;;;;;;4994179;28;20479;-56
2023/01/24 12:38:22;;;;;;;9.00;8.10;;;;;;;;;;4994421;28;20480;-56
2023/01/24 12:40:51;;;;;;;9.47;8.57;;;;;;;;;;4993954;28;20480;-56
2023/01/24 12:43:21;;;;;;;9.87;8.83;;;;;;;;;;4995297;28;20927;-56
2023/01/24 12:45:51;;;;;;;9.27;8.23;;;;;;;;;;5013440;28;20484;-56
2023/01/24 12:48:20;;;;;;;9.47;8.47;;;;;;;;;;5013475;28;20448;-57
2023/01/24 12:50:50;;;;;;;9.20;8.20;;;;;;;;;;5013478;28;20833;-55
2023/01/24 12:53:18;;;;;;;9.43;8.43;;;;;;;;;;5013199;28;20994;-55
2023/01/24 12:55:48;;;;;;;8.60;7.80;;;;;;;;;;5013603;28;20918;-56
2023/01/24 12:58:18;;;;;;;8.83;7.93;;;;;;;;;;5013503;28;20479;-56
2023/01/24 13:00:50;;;;;;;11.10;8.17;;;;;;;;;;5013275;28;20910;-56
2023/01/24 13:03:25;;;;;;;9.33;8.33;;;;;;;;;;5013246;28;20492;-57
2023/01/24 13:05:55;;;;;;;9.60;8.60;;;;;;;;;;5012989;28;20439;-57
2023/01/24 13:08:29;;;;;;;9.40;8.40;;;;;;;;;;5012978;28;20806;-56
2023/01/24 13:11:00;;;;;;;10.60;9.03;;;;;;;;;;5012767;28;20449;-56
2023/01/24 13:13:28;;;;;;;9.40;8.50;;;;;;;;;;5012927;28;20464;-56
2023/01/24 13:16:04;;;;;;;9.83;8.83;;;;;;;;;;5013117;28;20429;-57
2023/01/24 13:18:38;;;;;;;9.97;8.60;;;;;;;;;;5013085;28;20448;-58
2023/01/24 13:21:07;;;;;;;9.07;8.13;;;;;;;;;;5013127;28;20464;-55
2023/01/24 13:23:41;;;;;;;9.47;8.57;;;;;;;;;;5012688;28;20796;-57
2023/01/24 13:26:13;;;;;;;10.87;9.27;;;;;;;;;;5013032;28;20441;-55
2023/01/24 13:28:43;;;;;;;9.43;8.43;;;;;;;;;;5012541;28;20502;-55
2023/01/24 13:31:16;;;;;;;9.00;8.13;;;;;;;;;;5012666;28;20540;-56
2023/01/24 13:33:46;;;;;;;9.93;8.73;;;;;;;;;;5012530;28;20834;-56
2023/01/24 13:36:16;;;;;;;9.03;8.13;;;;;;;;;;5012775;28;20486;-56
2023/01/24 13:38:43;;;;;;;9.10;8.20;;;;;;;;;;5012508;28;20437;-56
2023/01/24 13:41:13;;;;;;;9.90;8.90;;;;;;;;;;5012388;28;20453;-57
2023/01/24 13:43:52;;;;;;;10.60;9.50;;;;;;;;;;5012149;28;20485;-54
2023/01/24 13:46:19;;;;;;;10.47;9.13;;;;;;;;;;5012316;28;20452;-56
2023/01/24 13:48:56;;;;;;;9.80;8.90;;;;;;;;;;5012250;28;20928;-55
2023/01/24 13:51:23;;;;;;;9.30;8.40;;;;;;;;;;5012355;28;20456;-55
2023/01/24 13:53:57;;;;;;;10.57;8.40;;;;;;;;;;5011977;28;20472;-55
2023/01/24 13:56:23;;;;;;;9.27;8.33;;;;;;;;;;5012037;28;20448;-55
2023/01/24 13:58:51;;;;;;;9.43;8.40;;;;;;;;;;5012192;28;20551;-57
2023/01/24 14:01:18;;;;;;;9.10;8.20;;;;;;;;;;5012355;28;20539;-55
2023/01/24 14:03:53;;;;;;;10.50;8.47;;;;;;;;;;5012382;28;20504;-55
2023/01/24 14:06:19;;;;;;;9.43;8.40;;;;;;;;;;5012303;28;20448;-55
2023/01/24 14:09:13;;;;;;;9.53;8.50;;;;;;;;;;5012279;28;20445;-55
2023/01/24 14:11:54;;;;;;;9.57;8.03;;;;;;;;;;5011994;28;20951;-54
2023/01/24 14:14:41;;;;;;;9.20;8.20;;;;;;;;;;5012100;28;20477;-54
2023/01/24 14:17:25;;;;;;;9.13;8.20;;;;;;;;;;5012331;28;20682;-54
2023/01/24 14:19:52;;;;;;;8.23;7.43;;;;;;;;;;5011954;28;20499;-55
2023/01/24 14:22:24;;;;;;;8.77;7.87;;;;;;;;;;5011916;28;20452;-55
2023/01/24 14:24:52;;;;;;;8.63;7.70;;;;;;;;;;5011974;28;21193;-56
2023/01/24 14:27:20;;;;;;;10.27;8.67;;;;;;;;;;5011988;28;20463;-55
2023/01/24 14:29:48;;;;;;;9.17;8.27;;;;;;;;;;5012153;28;20456;-55
2023/01/24 14:32:18;;;;;;;8.70;7.80;;;;;;;;;;5012017;28;20437;-56
2023/01/24 14:34:47;;;;;;;9.83;8.83;;;;;;;;;;5011692;28;20480;-56
2023/01/24 14:37:17;;;;;;;9.37;7.87;;;;;;;;;;5011957;28;20436;-58
2023/01/24 14:39:43;;;;;;;10.67;9.20;;;;;;;;;;5011914;28;20782;-56
2023/01/24 14:42:12;;;;;;;9.70;8.70;;;;;;;;;;5010880;28;20456;-57
2023/01/24 14:44:39;;;;;;;9.17;8.27;;;;;;;;;;5011172;28;20276;-56
2023/01/24 14:47:06;;;;;;;9.97;8.97;;;;;;;;;;5011416;28;21012;-55
2023/01/24 14:49:34;;;;;;;20.43;15.70;;;;;;;;;;5011369;28;20443;-54
2023/01/24 14:52:01;;;;;;;10.13;9.10;;;;;;;;;;5011380;28;20527;-59
2023/01/24 14:54:28;;;;;;;8.33;7.53;;;;;;;;;;5011569;28;20528;-56
2023/01/24 14:56:54;;;;;;;8.67;7.77;;;;;;;;;;5011234;28;20467;-55
2023/01/24 14:59:22;;;;;;;8.60;7.70;;;;;;;;;;5011309;28;20443;-55
2023/01/24 15:01:50;;;;;;;9.10;8.20;;;;;;;;;;5011273;28;20201;-55
2023/01/24 15:04:26;;;;;;;9.33;6.93;;;;;;;;;;5011679;28;20433;-55
2023/01/24 15:07:06;;;;;;;8.87;7.00;;;;;;;;;;5011237;28;20444;-55
2023/01/24 15:09:34;;;;;;;7.47;6.67;;;;;;;;;;5011054;28;20494;-54
2023/01/24 15:12:11;;;;;;;8.23;7.43;;;;;;;;;;5010911;28;20456;-55
2023/01/24 15:14:37;;;;;;;8.63;7.83;;;;;;;;;;5011398;28;20504;-56
2023/01/24 15:17:04;;;;;;;8.63;7.33;;;;;;;;;;5011287;28;20947;-55
2023/01/24 15:19:32;;;;;;;7.30;6.60;;;;;;;;;;5011192;28;20445;-55
2023/01/24 15:21:58;;;;;;;6.00;5.40;;;;;;;;;;5011098;28;20440;-55